sensor_id;sensor_type;location;lat;lon;timestamp;temperature;humidity
76787;DHT22;65739;51.482;5.702;2023-06-14T00:01:17;16.80;99.90
76787;DHT22;65739;51.482;5.702;2023-06-14T00:03:45;16.80;99.90
76787;DHT22;65739;51.482;5.702;2023-06-14T00:06:12;16.70;99.90
76787;DHT22;65739;51.482;5.702;2023-06-14T00:08:38;16.70;99.90
76787;DHT22;65739;51.482;5.702;2023-06-14T00:11:05;16.70;99.90
76787;DHT22;65739;51.482;5.702;2023-06-14T00:13:30;16.60;99.90
76787;DHT22;65739;51.482;5.702;2023-06-14T00:15:56;16.60;99.90
76787;DHT22;65739;51.482;5.702;2023-06-14T00:18:22;16.60;99.90
76787;DHT22;65739;51.482;5.702;2023-06-14T00:20:55;16.50;99.90
76787;DHT22;65739;51.482;5.702;2023-06-14T00:23:21;16.50;99.90
76787;DHT22;65739;51.482;5.702;2023-06-14T00:25:47;16.40;99.90
76787;DHT22;65739;51.482;5.702;2023-06-14T00:28:13;16.40;99.90
76787;DHT22;65739;51.482;5.702;2023-06-14T00:30:39;16.30;99.90
76787;DHT22;65739;51.482;5.702;2023-06-14T00:33:04;16.30;99.90
76787;DHT22;65739;51.482;5.702;2023-06-14T00:35:30;16.20;99.90
76787;DHT22;65739;51.482;5.702;2023-06-14T00:37:55;16.10;99.90
76787;DHT22;65739;51.482;5.702;2023-06-14T00:40:21;16.10;99.90
76787;DHT22;65739;51.482;5.702;2023-06-14T00:42:47;16.10;99.90
76787;DHT22;65739;51.482;5.702;2023-06-14T00:45:13;16.10;99.90
76787;DHT22;65739;51.482;5.702;2023-06-14T00:47:41;16.10;99.90
76787;DHT22;65739;51.482;5.702;2023-06-14T00:50:07;16.10;99.90
76787;DHT22;65739;51.482;5.702;2023-06-14T00:52:33;16.00;99.90
76787;DHT22;65739;51.482;5.702;2023-06-14T00:55:00;16.00;99.90
76787;DHT22;65739;51.482;5.702;2023-06-14T00:57:26;15.90;99.90
76787;DHT22;65739;51.482;5.702;2023-06-14T00:59:52;15.90;99.90
76787;DHT22;65739;51.482;5.702;2023-06-14T01:02:17;15.80;99.90
76787;DHT22;65739;51.482;5.702;2023-06-14T01:04:46;15.80;99.90
76787;DHT22;65739;51.482;5.702;2023-06-14T01:12:52;15.70;99.90
76787;DHT22;65739;51.482;5.702;2023-06-14T01:15:21;15.70;99.90
76787;DHT22;65739;51.482;5.702;2023-06-14T01:17:50;15.70;99.90
76787;DHT22;65739;51.482;5.702;2023-06-14T01:20:17;15.70;99.90
76787;DHT22;65739;51.482;5.702;2023-06-14T01:22:54;15.70;99.90
76787;DHT22;65739;51.482;5.702;2023-06-14T01:25:21;15.70;99.90
76787;DHT22;65739;51.482;5.702;2023-06-14T01:28:08;15.60;99.90
76787;DHT22;65739;51.482;5.702;2023-06-14T01:30:39;15.60;99.90
76787;DHT22;65739;51.482;5.702;2023-06-14T01:33:13;15.60;99.90
76787;DHT22;65739;51.482;5.702;2023-06-14T01:35:46;15.60;99.90
76787;DHT22;65739;51.482;5.702;2023-06-14T01:38:13;15.60;99.90
76787;DHT22;65739;51.482;5.702;2023-06-14T01:40:40;15.60;99.90
76787;DHT22;65739;51.482;5.702;2023-06-14T01:43:06;15.50;99.90
76787;DHT22;65739;51.482;5.702;2023-06-14T01:45:32;15.50;99.90
76787;DHT22;65739;51.482;5.702;2023-06-14T01:47:59;15.50;99.90
76787;DHT22;65739;51.482;5.702;2023-06-14T01:50:31;15.50;99.90
76787;DHT22;65739;51.482;5.702;2023-06-14T01:52:57;15.50;99.90
76787;DHT22;65739;51.482;5.702;2023-06-14T01:55:22;15.50;99.90
76787;DHT22;65739;51.482;5.702;2023-06-14T01:57:50;15.40;99.90
76787;DHT22;65739;51.482;5.702;2023-06-14T02:00:16;15.40;99.90
76787;DHT22;65739;51.482;5.702;2023-06-14T02:02:43;15.40;99.90
76787;DHT22;65739;51.482;5.702;2023-06-14T02:05:09;15.50;99.90
76787;DHT22;65739;51.482;5.702;2023-06-14T02:07:36;15.50;99.90
76787;DHT22;65739;51.482;5.702;2023-06-14T02:10:02;15.50;99.90
76787;DHT22;65739;51.482;5.702;2023-06-14T02:12:28;15.40;99.90
76787;DHT22;65739;51.482;5.702;2023-06-14T02:14:53;15.40;99.90
76787;DHT22;65739;51.482;5.702;2023-06-14T02:17:19;15.30;99.90
76787;DHT22;65739;51.482;5.702;2023-06-14T02:19:45;15.30;99.90
76787;DHT22;65739;51.482;5.702;2023-06-14T02:22:11;15.30;99.90
76787;DHT22;65739;51.482;5.702;2023-06-14T02:24:37;15.20;99.90
76787;DHT22;65739;51.482;5.702;2023-06-14T02:27:02;15.20;99.90
76787;DHT22;65739;51.482;5.702;2023-06-14T02:29:28;15.20;99.90
76787;DHT22;65739;51.482;5.702;2023-06-14T02:31:54;15.10;99.90
76787;DHT22;65739;51.482;5.702;2023-06-14T02:34:19;15.10;99.90
76787;DHT22;65739;51.482;5.702;2023-06-14T02:36:47;15.10;99.90
76787;DHT22;65739;51.482;5.702;2023-06-14T02:39:13;15.10;99.90
76787;DHT22;65739;51.482;5.702;2023-06-14T02:41:39;15.10;99.90
76787;DHT22;65739;51.482;5.702;2023-06-14T02:44:06;15.10;99.90
76787;DHT22;65739;51.482;5.702;2023-06-14T02:46:32;15.10;99.90
76787;DHT22;65739;51.482;5.702;2023-06-14T02:48:58;15.10;99.90
76787;DHT22;65739;51.482;5.702;2023-06-14T02:51:24;15.00;99.90
76787;DHT22;65739;51.482;5.702;2023-06-14T02:53:49;15.00;99.90
76787;DHT22;65739;51.482;5.702;2023-06-14T02:56:15;14.90;99.90
76787;DHT22;65739;51.482;5.702;2023-06-14T02:58:42;14.90;99.90
76787;DHT22;65739;51.482;5.702;2023-06-14T03:01:08;14.90;99.90
76787;DHT22;65739;51.482;5.702;2023-06-14T03:03:35;14.90;99.90
76787;DHT22;65739;51.482;5.702;2023-06-14T03:06:00;14.90;99.90
76787;DHT22;65739;51.482;5.702;2023-06-14T03:08:29;14.90;99.90
76787;DHT22;65739;51.482;5.702;2023-06-14T03:10:55;14.80;99.90
76787;DHT22;65739;51.482;5.702;2023-06-14T03:13:21;14.80;99.90
76787;DHT22;65739;51.482;5.702;2023-06-14T03:15:47;14.80;99.90
76787;DHT22;65739;51.482;5.702;2023-06-14T03:18:16;14.70;99.90
76787;DHT22;65739;51.482;5.702;2023-06-14T03:20:41;14.70;99.90
76787;DHT22;65739;51.482;5.702;2023-06-14T03:23:11;14.70;99.90
76787;DHT22;65739;51.482;5.702;2023-06-14T03:25:37;14.70;99.90
76787;DHT22;65739;51.482;5.702;2023-06-14T03:28:04;14.70;99.90
76787;DHT22;65739;51.482;5.702;2023-06-14T03:30:30;14.60;99.90
76787;DHT22;65739;51.482;5.702;2023-06-14T03:32:56;14.70;99.90
76787;DHT22;65739;51.482;5.702;2023-06-14T03:35:22;14.60;99.90
76787;DHT22;65739;51.482;5.702;2023-06-14T03:37:48;14.60;99.90
76787;DHT22;65739;51.482;5.702;2023-06-14T03:40:16;14.60;99.90
76787;DHT22;65739;51.482;5.702;2023-06-14T03:42:41;14.60;99.90
76787;DHT22;65739;51.482;5.702;2023-06-14T03:45:07;14.60;99.90
76787;DHT22;65739;51.482;5.702;2023-06-14T03:47:34;14.60;99.90
76787;DHT22;65739;51.482;5.702;2023-06-14T03:50:00;14.60;99.90
76787;DHT22;65739;51.482;5.702;2023-06-14T03:52:27;14.70;99.90
76787;DHT22;65739;51.482;5.702;2023-06-14T03:54:52;14.70;99.90
76787;DHT22;65739;51.482;5.702;2023-06-14T03:57:18;14.70;99.90
76787;DHT22;65739;51.482;5.702;2023-06-14T03:59:45;14.70;99.90
76787;DHT22;65739;51.482;5.702;2023-06-14T04:02:11;14.70;99.90
76787;DHT22;65739;51.482;5.702;2023-06-14T04:04:37;14.70;99.90
76787;DHT22;65739;51.482;5.702;2023-06-14T04:07:03;14.70;99.90
76787;DHT22;65739;51.482;5.702;2023-06-14T04:09:29;14.80;99.90
76787;DHT22;65739;51.482;5.702;2023-06-14T04:11:55;14.80;99.90
76787;DHT22;65739;51.482;5.702;2023-06-14T04:14:21;14.80;99.90
76787;DHT22;65739;51.482;5.702;2023-06-14T04:16:48;14.90;99.90
76787;DHT22;65739;51.482;5.702;2023-06-14T04:19:14;15.00;99.90
76787;DHT22;65739;51.482;5.702;2023-06-14T04:21:40;15.10;99.90
76787;DHT22;65739;51.482;5.702;2023-06-14T04:24:05;15.10;99.90
76787;DHT22;65739;51.482;5.702;2023-06-14T04:26:32;15.10;99.90
76787;DHT22;65739;51.482;5.702;2023-06-14T04:28:59;15.20;99.90
76787;DHT22;65739;51.482;5.702;2023-06-14T04:31:30;15.20;99.90
76787;DHT22;65739;51.482;5.702;2023-06-14T04:33:59;15.30;99.90
76787;DHT22;65739;51.482;5.702;2023-06-14T04:36:25;15.60;99.90
76787;DHT22;65739;51.482;5.702;2023-06-14T04:38:52;16.00;99.90
76787;DHT22;65739;51.482;5.702;2023-06-14T04:41:22;16.50;99.90
76787;DHT22;65739;51.482;5.702;2023-06-14T04:43:49;17.00;99.90
76787;DHT22;65739;51.482;5.702;2023-06-14T04:46:15;17.20;99.90
76787;DHT22;65739;51.482;5.702;2023-06-14T04:48:41;17.40;99.90
76787;DHT22;65739;51.482;5.702;2023-06-14T04:51:08;17.40;99.90
76787;DHT22;65739;51.482;5.702;2023-06-14T04:53:34;17.30;99.90
76787;DHT22;65739;51.482;5.702;2023-06-14T04:56:00;17.10;99.90
76787;DHT22;65739;51.482;5.702;2023-06-14T04:58:27;17.00;99.90
76787;DHT22;65739;51.482;5.702;2023-06-14T05:00:54;16.90;99.90
76787;DHT22;65739;51.482;5.702;2023-06-14T05:03:21;16.80;99.90
76787;DHT22;65739;51.482;5.702;2023-06-14T05:05:47;16.70;99.90
76787;DHT22;65739;51.482;5.702;2023-06-14T05:08:12;16.70;99.90
76787;DHT22;65739;51.482;5.702;2023-06-14T05:10:38;16.70;99.90
76787;DHT22;65739;51.482;5.702;2023-06-14T05:13:03;16.70;99.90
76787;DHT22;65739;51.482;5.702;2023-06-14T05:15:29;16.70;99.90
76787;DHT22;65739;51.482;5.702;2023-06-14T05:17:55;16.70;99.90
76787;DHT22;65739;51.482;5.702;2023-06-14T05:20:22;16.80;99.90
76787;DHT22;65739;51.482;5.702;2023-06-14T05:22:50;16.80;99.90
76787;DHT22;65739;51.482;5.702;2023-06-14T05:25:17;17.00;99.90
76787;DHT22;65739;51.482;5.702;2023-06-14T05:27:43;17.10;99.90
76787;DHT22;65739;51.482;5.702;2023-06-14T05:30:09;17.10;99.90
76787;DHT22;65739;51.482;5.702;2023-06-14T05:32:34;17.20;99.90
76787;DHT22;65739;51.482;5.702;2023-06-14T05:35:00;17.30;99.90
76787;DHT22;65739;51.482;5.702;2023-06-14T05:37:25;17.40;99.90
76787;DHT22;65739;51.482;5.702;2023-06-14T05:39:51;17.50;99.90
76787;DHT22;65739;51.482;5.702;2023-06-14T05:42:16;17.60;99.90
76787;DHT22;65739;51.482;5.702;2023-06-14T05:44:42;17.70;99.90
76787;DHT22;65739;51.482;5.702;2023-06-14T05:47:07;17.80;99.90
76787;DHT22;65739;51.482;5.702;2023-06-14T05:49:33;17.90;99.90
76787;DHT22;65739;51.482;5.702;2023-06-14T05:51:58;18.00;99.90
76787;DHT22;65739;51.482;5.702;2023-06-14T05:54:24;18.00;99.90
76787;DHT22;65739;51.482;5.702;2023-06-14T05:56:49;18.10;99.90
76787;DHT22;65739;51.482;5.702;2023-06-14T05:59:15;18.20;99.90
76787;DHT22;65739;51.482;5.702;2023-06-14T06:01:40;18.30;99.90
76787;DHT22;65739;51.482;5.702;2023-06-14T06:04:07;18.30;99.90
76787;DHT22;65739;51.482;5.702;2023-06-14T06:06:33;18.50;99.90
76787;DHT22;65739;51.482;5.702;2023-06-14T06:08:58;18.50;99.90
76787;DHT22;65739;51.482;5.702;2023-06-14T06:11:24;18.70;99.90
76787;DHT22;65739;51.482;5.702;2023-06-14T06:13:49;18.80;99.90
76787;DHT22;65739;51.482;5.702;2023-06-14T06:16:16;19.00;99.90
76787;DHT22;65739;51.482;5.702;2023-06-14T06:18:41;19.10;99.90
76787;DHT22;65739;51.482;5.702;2023-06-14T06:21:07;19.20;99.90
76787;DHT22;65739;51.482;5.702;2023-06-14T06:23:32;19.20;99.90
76787;DHT22;65739;51.482;5.702;2023-06-14T06:25:58;19.30;99.90
76787;DHT22;65739;51.482;5.702;2023-06-14T06:28:23;19.40;99.90
76787;DHT22;65739;51.482;5.702;2023-06-14T06:30:49;19.50;99.90
76787;DHT22;65739;51.482;5.702;2023-06-14T06:33:15;19.60;99.90
76787;DHT22;65739;51.482;5.702;2023-06-14T06:35:41;19.60;99.90
76787;DHT22;65739;51.482;5.702;2023-06-14T06:38:07;19.70;99.90
76787;DHT22;65739;51.482;5.702;2023-06-14T06:40:34;19.80;99.90
76787;DHT22;65739;51.482;5.702;2023-06-14T06:42:59;19.90;99.90
76787;DHT22;65739;51.482;5.702;2023-06-14T06:45:25;20.00;99.90
76787;DHT22;65739;51.482;5.702;2023-06-14T06:47:51;20.00;99.90
76787;DHT22;65739;51.482;5.702;2023-06-14T06:50:17;20.10;99.90
76787;DHT22;65739;51.482;5.702;2023-06-14T06:52:43;20.20;99.90
76787;DHT22;65739;51.482;5.702;2023-06-14T06:55:10;20.20;99.90
76787;DHT22;65739;51.482;5.702;2023-06-14T06:57:36;20.30;99.90
76787;DHT22;65739;51.482;5.702;2023-06-14T07:00:02;20.40;99.90
76787;DHT22;65739;51.482;5.702;2023-06-14T07:02:31;20.50;99.90
76787;DHT22;65739;51.482;5.702;2023-06-14T07:04:56;20.60;99.90
76787;DHT22;65739;51.482;5.702;2023-06-14T07:07:22;20.80;99.90
76787;DHT22;65739;51.482;5.702;2023-06-14T07:09:47;20.70;99.90
76787;DHT22;65739;51.482;5.702;2023-06-14T07:12:13;20.80;99.90
76787;DHT22;65739;51.482;5.702;2023-06-14T07:14:38;20.90;99.90
76787;DHT22;65739;51.482;5.702;2023-06-14T07:17:04;20.90;99.90
76787;DHT22;65739;51.482;5.702;2023-06-14T07:19:30;21.00;99.90
76787;DHT22;65739;51.482;5.702;2023-06-14T07:21:56;21.00;99.90
76787;DHT22;65739;51.482;5.702;2023-06-14T07:24:23;21.10;99.90
76787;DHT22;65739;51.482;5.702;2023-06-14T07:26:49;21.20;99.90
76787;DHT22;65739;51.482;5.702;2023-06-14T07:29:15;21.20;99.90
76787;DHT22;65739;51.482;5.702;2023-06-14T07:31:41;21.20;99.90
76787;DHT22;65739;51.482;5.702;2023-06-14T07:34:07;21.40;99.90
76787;DHT22;65739;51.482;5.702;2023-06-14T07:36:32;21.40;99.90
76787;DHT22;65739;51.482;5.702;2023-06-14T07:38:58;21.50;99.90
76787;DHT22;65739;51.482;5.702;2023-06-14T07:41:23;21.60;99.90
76787;DHT22;65739;51.482;5.702;2023-06-14T07:43:49;21.70;99.90
76787;DHT22;65739;51.482;5.702;2023-06-14T07:46:15;22.00;99.90
76787;DHT22;65739;51.482;5.702;2023-06-14T07:48:40;22.10;99.90
76787;DHT22;65739;51.482;5.702;2023-06-14T07:51:06;22.10;99.90
76787;DHT22;65739;51.482;5.702;2023-06-14T07:53:31;22.20;99.90
76787;DHT22;65739;51.482;5.702;2023-06-14T07:55:57;22.40;99.90
76787;DHT22;65739;51.482;5.702;2023-06-14T07:58:23;22.50;99.80
76787;DHT22;65739;51.482;5.702;2023-06-14T08:00:48;22.60;99.60
76787;DHT22;65739;51.482;5.702;2023-06-14T08:03:15;22.70;99.50
76787;DHT22;65739;51.482;5.702;2023-06-14T08:05:40;23.00;99.40
76787;DHT22;65739;51.482;5.702;2023-06-14T08:08:06;23.00;98.50
76787;DHT22;65739;51.482;5.702;2023-06-14T08:10:31;23.10;98.50
76787;DHT22;65739;51.482;5.702;2023-06-14T08:12:57;23.00;97.70
76787;DHT22;65739;51.482;5.702;2023-06-14T08:15:22;23.20;98.50
76787;DHT22;65739;51.482;5.702;2023-06-14T08:17:48;23.30;97.80
76787;DHT22;65739;51.482;5.702;2023-06-14T08:20:14;23.40;97.70
76787;DHT22;65739;51.482;5.702;2023-06-14T08:22:42;23.70;97.70
76787;DHT22;65739;51.482;5.702;2023-06-14T08:25:08;23.90;97.60
76787;DHT22;65739;51.482;5.702;2023-06-14T08:27:34;24.20;97.10
76787;DHT22;65739;51.482;5.702;2023-06-14T08:30:00;24.40;97.40
76787;DHT22;65739;51.482;5.702;2023-06-14T08:32:25;24.40;96.50
76787;DHT22;65739;51.482;5.702;2023-06-14T08:34:51;24.60;97.00
76787;DHT22;65739;51.482;5.702;2023-06-14T08:37:16;24.70;96.70
76787;DHT22;65739;51.482;5.702;2023-06-14T08:39:42;25.00;96.60
76787;DHT22;65739;51.482;5.702;2023-06-14T08:42:09;25.20;95.40
76787;DHT22;65739;51.482;5.702;2023-06-14T08:44:36;25.30;94.50
76787;DHT22;65739;51.482;5.702;2023-06-14T08:47:01;24.90;93.60
76787;DHT22;65739;51.482;5.702;2023-06-14T08:49:29;25.00;93.90
76787;DHT22;65739;51.482;5.702;2023-06-14T08:52:00;25.00;94.10
76787;DHT22;65739;51.482;5.702;2023-06-14T08:54:29;25.30;93.30
76787;DHT22;65739;51.482;5.702;2023-06-14T08:56:59;25.50;93.30
76787;DHT22;65739;51.482;5.702;2023-06-14T08:59:26;25.60;93.10
76787;DHT22;65739;51.482;5.702;2023-06-14T09:01:53;25.70;92.90
76787;DHT22;65739;51.482;5.702;2023-06-14T09:04:22;26.00;93.20
76787;DHT22;65739;51.482;5.702;2023-06-14T09:06:49;26.00;91.90
76787;DHT22;65739;51.482;5.702;2023-06-14T09:09:20;26.10;91.00
76787;DHT22;65739;51.482;5.702;2023-06-14T09:11:46;25.90;89.40
76787;DHT22;65739;51.482;5.702;2023-06-14T09:14:12;26.20;90.80
76787;DHT22;65739;51.482;5.702;2023-06-14T09:16:38;26.40;89.90
76787;DHT22;65739;51.482;5.702;2023-06-14T09:19:03;26.30;90.80
76787;DHT22;65739;51.482;5.702;2023-06-14T09:21:33;26.20;90.10
76787;DHT22;65739;51.482;5.702;2023-06-14T09:23:59;26.30;86.00
76787;DHT22;65739;51.482;5.702;2023-06-14T09:26:25;26.40;86.60
76787;DHT22;65739;51.482;5.702;2023-06-14T09:28:53;26.50;86.40
76787;DHT22;65739;51.482;5.702;2023-06-14T09:31:21;26.30;87.20
76787;DHT22;65739;51.482;5.702;2023-06-14T09:33:50;26.60;86.50
76787;DHT22;65739;51.482;5.702;2023-06-14T09:36:24;26.80;87.30
76787;DHT22;65739;51.482;5.702;2023-06-14T09:38:58;26.90;86.50
76787;DHT22;65739;51.482;5.702;2023-06-14T09:41:34;27.20;87.40
76787;DHT22;65739;51.482;5.702;2023-06-14T09:44:01;27.20;86.20
76787;DHT22;65739;51.482;5.702;2023-06-14T09:46:28;27.10;84.10
76787;DHT22;65739;51.482;5.702;2023-06-14T09:48:58;27.30;83.90
76787;DHT22;65739;51.482;5.702;2023-06-14T09:51:25;27.10;83.10
76787;DHT22;65739;51.482;5.702;2023-06-14T09:53:52;27.10;83.30
76787;DHT22;65739;51.482;5.702;2023-06-14T09:56:28;27.40;85.10
76787;DHT22;65739;51.482;5.702;2023-06-14T09:58:56;27.10;83.70
76787;DHT22;65739;51.482;5.702;2023-06-14T10:01:27;27.20;83.50
76787;DHT22;65739;51.482;5.702;2023-06-14T10:03:59;27.20;85.00
76787;DHT22;65739;51.482;5.702;2023-06-14T10:06:27;27.50;82.70
76787;DHT22;65739;51.482;5.702;2023-06-14T10:08:56;27.50;82.50
76787;DHT22;65739;51.482;5.702;2023-06-14T10:11:23;27.80;85.20
76787;DHT22;65739;51.482;5.702;2023-06-14T10:13:50;27.40;83.20
76787;DHT22;65739;51.482;5.702;2023-06-14T10:16:27;27.30;83.30
76787;DHT22;65739;51.482;5.702;2023-06-14T10:21:57;27.80;83.20
76787;DHT22;65739;51.482;5.702;2023-06-14T10:24:32;27.90;82.20
76787;DHT22;65739;51.482;5.702;2023-06-14T10:26:59;28.10;81.50
76787;DHT22;65739;51.482;5.702;2023-06-14T10:29:29;27.90;81.90
76787;DHT22;65739;51.482;5.702;2023-06-14T10:32:01;27.80;82.70
76787;DHT22;65739;51.482;5.702;2023-06-14T10:34:28;27.70;82.60
76787;DHT22;65739;51.482;5.702;2023-06-14T10:37:05;27.40;82.40
76787;DHT22;65739;51.482;5.702;2023-06-14T10:39:33;27.60;84.50
76787;DHT22;65739;51.482;5.702;2023-06-14T10:42:02;28.00;83.30
76787;DHT22;65739;51.482;5.702;2023-06-14T10:46:58;28.20;83.40
76787;DHT22;65739;51.482;5.702;2023-06-14T10:49:50;27.80;83.00
76787;DHT22;65739;51.482;5.702;2023-06-14T10:52:19;27.90;82.60
76787;DHT22;65739;51.482;5.702;2023-06-14T10:57:21;27.80;83.00
76787;DHT22;65739;51.482;5.702;2023-06-14T10:59:47;27.90;82.20
76787;DHT22;65739;51.482;5.702;2023-06-14T11:04:51;28.00;80.30
76787;DHT22;65739;51.482;5.702;2023-06-14T11:12:59;28.10;82.20
76787;DHT22;65739;51.482;5.702;2023-06-14T11:15:32;28.30;83.00
76787;DHT22;65739;51.482;5.702;2023-06-14T11:18:06;28.40;81.30
76787;DHT22;65739;51.482;5.702;2023-06-14T11:20:34;28.50;82.30
76787;DHT22;65739;51.482;5.702;2023-06-14T11:23:00;28.80;82.80
76787;DHT22;65739;51.482;5.702;2023-06-14T11:25:27;28.70;80.10
76787;DHT22;65739;51.482;5.702;2023-06-14T11:27:55;28.80;82.30
76787;DHT22;65739;51.482;5.702;2023-06-14T11:30:22;28.90;82.00
76787;DHT22;65739;51.482;5.702;2023-06-14T11:32:48;28.90;81.10
76787;DHT22;65739;51.482;5.702;2023-06-14T11:35:15;28.30;81.40
76787;DHT22;65739;51.482;5.702;2023-06-14T11:37:41;28.60;83.20
76787;DHT22;65739;51.482;5.702;2023-06-14T11:40:08;28.50;80.00
76787;DHT22;65739;51.482;5.702;2023-06-14T11:42:35;28.30;79.70
76787;DHT22;65739;51.482;5.702;2023-06-14T11:45:02;28.60;82.00
76787;DHT22;65739;51.482;5.702;2023-06-14T11:47:32;29.20;81.40
76787;DHT22;65739;51.482;5.702;2023-06-14T11:49:59;29.00;79.80
76787;DHT22;65739;51.482;5.702;2023-06-14T11:52:25;29.10;81.50
76787;DHT22;65739;51.482;5.702;2023-06-14T11:54:51;29.20;80.00
76787;DHT22;65739;51.482;5.702;2023-06-14T11:57:18;28.60;80.10
76787;DHT22;65739;51.482;5.702;2023-06-14T11:59:44;28.70;81.20
76787;DHT22;65739;51.482;5.702;2023-06-14T12:02:18;29.10;80.60
76787;DHT22;65739;51.482;5.702;2023-06-14T12:04:46;28.90;81.40
76787;DHT22;65739;51.482;5.702;2023-06-14T12:07:13;29.10;78.90
76787;DHT22;65739;51.482;5.702;2023-06-14T12:12:24;29.00;78.70
76787;DHT22;65739;51.482;5.702;2023-06-14T12:14:55;29.00;80.20
76787;DHT22;65739;51.482;5.702;2023-06-14T12:17:22;29.30;80.70
76787;DHT22;65739;51.482;5.702;2023-06-14T12:19:49;29.40;80.40
76787;DHT22;65739;51.482;5.702;2023-06-14T12:22:16;29.80;80.10
76787;DHT22;65739;51.482;5.702;2023-06-14T12:24:45;29.50;78.60
76787;DHT22;65739;51.482;5.702;2023-06-14T12:27:12;29.30;78.60
76787;DHT22;65739;51.482;5.702;2023-06-14T12:29:42;29.60;77.80
76787;DHT22;65739;51.482;5.702;2023-06-14T12:32:11;29.40;78.70
76787;DHT22;65739;51.482;5.702;2023-06-14T12:34:36;29.40;77.40
76787;DHT22;65739;51.482;5.702;2023-06-14T12:37:02;29.30;77.70
76787;DHT22;65739;51.482;5.702;2023-06-14T12:39:29;29.20;76.90
76787;DHT22;65739;51.482;5.702;2023-06-14T12:41:57;29.40;78.40
76787;DHT22;65739;51.482;5.702;2023-06-14T12:44:22;29.40;76.40
76787;DHT22;65739;51.482;5.702;2023-06-14T12:46:48;29.10;77.00
76787;DHT22;65739;51.482;5.702;2023-06-14T12:49:17;29.50;77.50
76787;DHT22;65739;51.482;5.702;2023-06-14T12:51:42;29.70;77.00
76787;DHT22;65739;51.482;5.702;2023-06-14T12:54:08;29.50;78.50
76787;DHT22;65739;51.482;5.702;2023-06-14T12:56:34;29.50;76.60
76787;DHT22;65739;51.482;5.702;2023-06-14T12:58:59;29.50;77.60
76787;DHT22;65739;51.482;5.702;2023-06-14T13:01:25;29.80;77.60
76787;DHT22;65739;51.482;5.702;2023-06-14T13:03:51;30.10;77.20
76787;DHT22;65739;51.482;5.702;2023-06-14T13:06:21;29.90;76.30
76787;DHT22;65739;51.482;5.702;2023-06-14T13:08:47;30.10;76.20
76787;DHT22;65739;51.482;5.702;2023-06-14T13:11:13;29.50;76.30
76787;DHT22;65739;51.482;5.702;2023-06-14T13:13:39;29.50;76.20
76787;DHT22;65739;51.482;5.702;2023-06-14T13:16:04;29.30;76.80
76787;DHT22;65739;51.482;5.702;2023-06-14T13:18:30;29.30;77.00
76787;DHT22;65739;51.482;5.702;2023-06-14T13:20:55;29.90;78.40
76787;DHT22;65739;51.482;5.702;2023-06-14T13:23:21;29.60;75.80
76787;DHT22;65739;51.482;5.702;2023-06-14T13:25:46;29.70;77.40
76787;DHT22;65739;51.482;5.702;2023-06-14T13:28:14;30.10;78.40
76787;DHT22;65739;51.482;5.702;2023-06-14T13:30:40;29.60;75.40
76787;DHT22;65739;51.482;5.702;2023-06-14T13:33:06;29.80;76.60
76787;DHT22;65739;51.482;5.702;2023-06-14T13:35:31;30.00;76.80
76787;DHT22;65739;51.482;5.702;2023-06-14T13:37:57;30.20;76.90
76787;DHT22;65739;51.482;5.702;2023-06-14T13:40:22;30.30;75.50
76787;DHT22;65739;51.482;5.702;2023-06-14T13:42:48;30.60;73.80
76787;DHT22;65739;51.482;5.702;2023-06-14T13:45:15;30.10;74.90
76787;DHT22;65739;51.482;5.702;2023-06-14T13:47:41;29.90;74.80
76787;DHT22;65739;51.482;5.702;2023-06-14T13:50:07;30.20;75.30
76787;DHT22;65739;51.482;5.702;2023-06-14T13:52:32;30.20;75.10
76787;DHT22;65739;51.482;5.702;2023-06-14T13:54:58;30.20;74.80
76787;DHT22;65739;51.482;5.702;2023-06-14T13:57:26;30.50;74.10
76787;DHT22;65739;51.482;5.702;2023-06-14T13:59:52;30.40;75.00
76787;DHT22;65739;51.482;5.702;2023-06-14T14:02:20;30.40;75.10
76787;DHT22;65739;51.482;5.702;2023-06-14T14:04:46;30.70;75.00
76787;DHT22;65739;51.482;5.702;2023-06-14T14:07:18;30.50;74.20
76787;DHT22;65739;51.482;5.702;2023-06-14T14:09:44;30.40;73.90
76787;DHT22;65739;51.482;5.702;2023-06-14T14:12:10;30.30;73.60
76787;DHT22;65739;51.482;5.702;2023-06-14T14:14:36;29.90;74.70
76787;DHT22;65739;51.482;5.702;2023-06-14T14:17:02;30.20;75.50
76787;DHT22;65739;51.482;5.702;2023-06-14T14:19:28;30.30;75.10
76787;DHT22;65739;51.482;5.702;2023-06-14T14:21:53;30.40;74.40
76787;DHT22;65739;51.482;5.702;2023-06-14T14:24:19;30.50;75.10
76787;DHT22;65739;51.482;5.702;2023-06-14T14:26:45;30.70;77.00
76787;DHT22;65739;51.482;5.702;2023-06-14T14:29:13;30.90;75.60
76787;DHT22;65739;51.482;5.702;2023-06-14T14:31:38;30.40;74.70
76787;DHT22;65739;51.482;5.702;2023-06-14T14:34:04;30.40;74.50
76787;DHT22;65739;51.482;5.702;2023-06-14T14:36:32;30.70;75.10
76787;DHT22;65739;51.482;5.702;2023-06-14T14:39:03;30.80;75.30
76787;DHT22;65739;51.482;5.702;2023-06-14T14:41:29;31.00;74.50
76787;DHT22;65739;51.482;5.702;2023-06-14T14:43:58;30.70;72.60
76787;DHT22;65739;51.482;5.702;2023-06-14T14:46:27;30.80;73.00
76787;DHT22;65739;51.482;5.702;2023-06-14T14:48:53;31.10;73.60
76787;DHT22;65739;51.482;5.702;2023-06-14T14:51:18;30.80;73.20
76787;DHT22;65739;51.482;5.702;2023-06-14T14:53:44;31.20;74.80
76787;DHT22;65739;51.482;5.702;2023-06-14T14:56:10;31.20;73.60
76787;DHT22;65739;51.482;5.702;2023-06-14T14:58:37;30.90;73.90
76787;DHT22;65739;51.482;5.702;2023-06-14T15:01:03;30.80;74.10
76787;DHT22;65739;51.482;5.702;2023-06-14T15:03:31;30.50;72.40
76787;DHT22;65739;51.482;5.702;2023-06-14T15:05:56;30.30;73.70
76787;DHT22;65739;51.482;5.702;2023-06-14T15:08:22;30.50;73.00
76787;DHT22;65739;51.482;5.702;2023-06-14T15:10:50;30.60;73.50
76787;DHT22;65739;51.482;5.702;2023-06-14T15:13:15;30.70;74.30
76787;DHT22;65739;51.482;5.702;2023-06-14T15:15:43;30.40;73.70
76787;DHT22;65739;51.482;5.702;2023-06-14T15:18:12;31.30;73.80
76787;DHT22;65739;51.482;5.702;2023-06-14T15:20:37;31.20;72.30
76787;DHT22;65739;51.482;5.702;2023-06-14T15:23:03;31.30;73.60
76787;DHT22;65739;51.482;5.702;2023-06-14T15:25:29;31.70;73.80
76787;DHT22;65739;51.482;5.702;2023-06-14T15:28:00;31.30;75.10
76787;DHT22;65739;51.482;5.702;2023-06-14T15:30:30;31.50;73.40
76787;DHT22;65739;51.482;5.702;2023-06-14T15:32:55;31.70;74.10
76787;DHT22;65739;51.482;5.702;2023-06-14T15:35:21;31.90;73.50
76787;DHT22;65739;51.482;5.702;2023-06-14T15:37:47;31.60;71.90
76787;DHT22;65739;51.482;5.702;2023-06-14T15:40:13;31.40;71.80
76787;DHT22;65739;51.482;5.702;2023-06-14T15:42:39;31.10;72.40
76787;DHT22;65739;51.482;5.702;2023-06-14T15:45:05;31.20;71.60
76787;DHT22;65739;51.482;5.702;2023-06-14T15:47:30;31.20;72.40
76787;DHT22;65739;51.482;5.702;2023-06-14T15:49:56;31.30;71.10
76787;DHT22;65739;51.482;5.702;2023-06-14T15:52:22;31.20;71.20